sensor_id;sensor_type;location;lat;lon;timestamp;P1;durP1;ratioP1;P2;durP2;ratioP2
73599;SDS011;61877;48.246;9.220;2022-09-09T00:01:25;6.50;;;2.03;;
73599;SDS011;61877;48.246;9.220;2022-09-09T00:03:58;5.75;;;1.88;;
73599;SDS011;61877;48.246;9.220;2022-09-09T00:06:28;5.87;;;1.83;;
73599;SDS011;61877;48.246;9.220;2022-09-09T00:08:59;6.38;;;1.67;;
73599;SDS011;61877;48.246;9.220;2022-09-09T00:11:30;5.72;;;1.77;;
73599;SDS011;61877;48.246;9.220;2022-09-09T00:14:07;6.80;;;1.85;;
73599;SDS011;61877;48.246;9.220;2022-09-09T00:16:38;6.95;;;1.90;;
73599;SDS011;61877;48.246;9.220;2022-09-09T00:19:12;7.10;;;1.80;;
73599;SDS011;61877;48.246;9.220;2022-09-09T00:21:46;5.97;;;2.00;;
73599;SDS011;61877;48.246;9.220;2022-09-09T00:24:18;5.78;;;2.00;;
73599;SDS011;61877;48.246;9.220;2022-09-09T00:26:51;5.78;;;1.75;;
73599;SDS011;61877;48.246;9.220;2022-09-09T00:29:28;5.57;;;1.83;;
73599;SDS011;61877;48.246;9.220;2022-09-09T00:31:57;7.30;;;1.70;;
73599;SDS011;61877;48.246;9.220;2022-09-09T00:34:32;7.10;;;1.90;;
73599;SDS011;61877;48.246;9.220;2022-09-09T00:36:58;8.23;;;2.40;;
73599;SDS011;61877;48.246;9.220;2022-09-09T00:39:27;7.32;;;2.00;;
73599;SDS011;61877;48.246;9.220;2022-09-09T00:42:02;7.90;;;2.08;;
73599;SDS011;61877;48.246;9.220;2022-09-09T00:44:37;6.13;;;1.90;;
73599;SDS011;61877;48.246;9.220;2022-09-09T00:47:12;8.05;;;1.67;;
73599;SDS011;61877;48.246;9.220;2022-09-09T00:49:54;8.07;;;2.00;;
73599;SDS011;61877;48.246;9.220;2022-09-09T00:52:27;6.93;;;1.83;;
73599;SDS011;61877;48.246;9.220;2022-09-09T00:55:03;6.53;;;1.60;;
73599;SDS011;61877;48.246;9.220;2022-09-09T00:57:34;6.07;;;1.80;;
73599;SDS011;61877;48.246;9.220;2022-09-09T01:00:16;6.78;;;2.10;;
73599;SDS011;61877;48.246;9.220;2022-09-09T01:02:46;5.10;;;1.60;;
73599;SDS011;61877;48.246;9.220;2022-09-09T01:05:29;5.95;;;1.75;;
73599;SDS011;61877;48.246;9.220;2022-09-09T01:08:00;5.90;;;1.70;;
73599;SDS011;61877;48.246;9.220;2022-09-09T01:10:31;5.80;;;1.70;;
73599;SDS011;61877;48.246;9.220;2022-09-09T01:13:08;6.38;;;2.00;;
73599;SDS011;61877;48.246;9.220;2022-09-09T01:15:40;5.30;;;1.88;;
73599;SDS011;61877;48.246;9.220;2022-09-09T01:18:07;5.97;;;1.90;;
73599;SDS011;61877;48.246;9.220;2022-09-09T01:20:37;6.30;;;2.00;;
73599;SDS011;61877;48.246;9.220;2022-09-09T01:23:26;6.05;;;1.63;;
73599;SDS011;61877;48.246;9.220;2022-09-09T01:26:19;6.78;;;2.00;;
73599;SDS011;61877;48.246;9.220;2022-09-09T01:28:48;6.05;;;1.70;;
73599;SDS011;61877;48.246;9.220;2022-09-09T01:31:17;6.95;;;1.92;;
73599;SDS011;61877;48.246;9.220;2022-09-09T01:33:44;5.87;;;1.80;;
73599;SDS011;61877;48.246;9.220;2022-09-09T01:36:10;5.65;;;1.80;;
73599;SDS011;61877;48.246;9.220;2022-09-09T01:38:39;6.50;;;2.13;;
73599;SDS011;61877;48.246;9.220;2022-09-09T01:41:05;7.10;;;1.93;;
73599;SDS011;61877;48.246;9.220;2022-09-09T01:43:32;7.95;;;1.90;;
73599;SDS011;61877;48.246;9.220;2022-09-09T01:45:59;7.77;;;1.90;;
73599;SDS011;61877;48.246;9.220;2022-09-09T01:48:26;5.68;;;1.60;;
73599;SDS011;61877;48.246;9.220;2022-09-09T01:50:52;6.50;;;2.03;;
73599;SDS011;61877;48.246;9.220;2022-09-09T01:53:18;6.93;;;2.30;;
73599;SDS011;61877;48.246;9.220;2022-09-09T01:55:46;6.90;;;2.00;;
73599;SDS011;61877;48.246;9.220;2022-09-09T01:58:26;6.45;;;1.85;;
73599;SDS011;61877;48.246;9.220;2022-09-09T02:01:05;6.93;;;1.90;;
73599;SDS011;61877;48.246;9.220;2022-09-09T02:03:38;5.77;;;1.90;;
73599;SDS011;61877;48.246;9.220;2022-09-09T02:06:11;5.40;;;1.80;;
73599;SDS011;61877;48.246;9.220;2022-09-09T02:08:46;6.07;;;1.90;;
73599;SDS011;61877;48.246;9.220;2022-09-09T02:11:15;5.60;;;1.90;;
73599;SDS011;61877;48.246;9.220;2022-09-09T02:13:42;6.32;;;2.00;;
73599;SDS011;61877;48.246;9.220;2022-09-09T02:16:11;5.60;;;1.73;;
73599;SDS011;61877;48.246;9.220;2022-09-09T02:18:42;5.45;;;1.60;;
73599;SDS011;61877;48.246;9.220;2022-09-09T02:21:12;6.25;;;2.00;;
73599;SDS011;61877;48.246;9.220;2022-09-09T02:23:39;5.85;;;1.90;;
73599;SDS011;61877;48.246;9.220;2022-09-09T02:26:07;6.65;;;2.03;;
73599;SDS011;61877;48.246;9.220;2022-09-09T02:28:35;6.63;;;1.90;;
73599;SDS011;61877;48.246;9.220;2022-09-09T02:31:04;5.50;;;1.85;;
73599;SDS011;61877;48.246;9.220;2022-09-09T02:33:33;6.30;;;2.15;;
73599;SDS011;61877;48.246;9.220;2022-09-09T02:36:03;7.97;;;2.00;;
73599;SDS011;61877;48.246;9.220;2022-09-09T02:38:35;5.47;;;1.90;;
73599;SDS011;61877;48.246;9.220;2022-09-09T02:41:05;5.87;;;1.93;;
73599;SDS011;61877;48.246;9.220;2022-09-09T02:43:31;6.20;;;1.98;;
73599;SDS011;61877;48.246;9.220;2022-09-09T02:46:03;5.72;;;2.10;;
73599;SDS011;61877;48.246;9.220;2022-09-09T02:48:46;8.73;;;1.98;;
73599;SDS011;61877;48.246;9.220;2022-09-09T02:51:22;5.90;;;2.40;;
73599;SDS011;61877;48.246;9.220;2022-09-09T02:53:56;7.97;;;1.90;;
73599;SDS011;61877;48.246;9.220;2022-09-09T02:56:28;5.70;;;1.80;;
73599;SDS011;61877;48.246;9.220;2022-09-09T02:58:57;5.88;;;2.20;;
73599;SDS011;61877;48.246;9.220;2022-09-09T03:01:24;5.40;;;2.00;;
73599;SDS011;61877;48.246;9.220;2022-09-09T03:03:50;7.40;;;2.05;;
73599;SDS011;61877;48.246;9.220;2022-09-09T03:06:15;6.07;;;2.03;;
73599;SDS011;61877;48.246;9.220;2022-09-09T03:08:41;6.75;;;1.90;;
73599;SDS011;61877;48.246;9.220;2022-09-09T03:11:06;7.27;;;2.50;;
73599;SDS011;61877;48.246;9.220;2022-09-09T03:13:37;6.90;;;2.17;;
73599;SDS011;61877;48.246;9.220;2022-09-09T03:16:03;6.37;;;2.20;;
73599;SDS011;61877;48.246;9.220;2022-09-09T03:18:30;5.72;;;2.20;;
73599;SDS011;61877;48.246;9.220;2022-09-09T03:20:55;7.10;;;2.10;;
73599;SDS011;61877;48.246;9.220;2022-09-09T03:23:21;5.57;;;1.80;;
73599;SDS011;61877;48.246;9.220;2022-09-09T03:25:47;8.10;;;2.10;;
73599;SDS011;61877;48.246;9.220;2022-09-09T03:28:12;6.43;;;2.20;;
73599;SDS011;61877;48.246;9.220;2022-09-09T03:30:38;6.50;;;2.10;;
73599;SDS011;61877;48.246;9.220;2022-09-09T03:33:04;7.10;;;2.22;;
73599;SDS011;61877;48.246;9.220;2022-09-09T03:35:30;6.83;;;1.87;;
73599;SDS011;61877;48.246;9.220;2022-09-09T03:37:56;6.20;;;1.98;;
73599;SDS011;61877;48.246;9.220;2022-09-09T03:40:21;5.83;;;2.00;;
73599;SDS011;61877;48.246;9.220;2022-09-09T03:42:47;7.10;;;2.17;;
73599;SDS011;61877;48.246;9.220;2022-09-09T03:45:12;6.78;;;1.90;;
73599;SDS011;61877;48.246;9.220;2022-09-09T03:47:38;5.80;;;2.20;;
73599;SDS011;61877;48.246;9.220;2022-09-09T03:50:04;6.40;;;2.37;;
73599;SDS011;61877;48.246;9.220;2022-09-09T03:52:31;7.20;;;2.30;;
73599;SDS011;61877;48.246;9.220;2022-09-09T03:54:59;7.05;;;2.90;;
73599;SDS011;61877;48.246;9.220;2022-09-09T03:57:25;7.27;;;2.27;;
73599;SDS011;61877;48.246;9.220;2022-09-09T03:59:50;6.77;;;2.23;;
73599;SDS011;61877;48.246;9.220;2022-09-09T04:02:16;7.22;;;2.25;;
73599;SDS011;61877;48.246;9.220;2022-09-09T04:04:41;6.30;;;2.20;;
73599;SDS011;61877;48.246;9.220;2022-09-09T04:07:06;7.80;;;2.30;;
73599;SDS011;61877;48.246;9.220;2022-09-09T04:09:33;6.43;;;2.05;;
73599;SDS011;61877;48.246;9.220;2022-09-09T04:11:59;6.73;;;2.07;;
73599;SDS011;61877;48.246;9.220;2022-09-09T04:14:24;6.20;;;2.10;;
73599;SDS011;61877;48.246;9.220;2022-09-09T04:16:50;6.00;;;2.20;;
73599;SDS011;61877;48.246;9.220;2022-09-09T04:19:15;5.73;;;2.20;;
73599;SDS011;61877;48.246;9.220;2022-09-09T04:21:41;6.57;;;2.07;;
73599;SDS011;61877;48.246;9.220;2022-09-09T04:24:06;5.82;;;1.90;;
73599;SDS011;61877;48.246;9.220;2022-09-09T04:26:34;6.78;;;1.88;;
73599;SDS011;61877;48.246;9.220;2022-09-09T04:29:00;6.60;;;2.30;;
73599;SDS011;61877;48.246;9.220;2022-09-09T04:31:26;6.45;;;2.20;;
73599;SDS011;61877;48.246;9.220;2022-09-09T04:33:51;6.23;;;2.00;;
73599;SDS011;61877;48.246;9.220;2022-09-09T04:36:18;6.28;;;2.35;;
73599;SDS011;61877;48.246;9.220;2022-09-09T04:38:43;7.53;;;2.20;;
73599;SDS011;61877;48.246;9.220;2022-09-09T04:41:09;6.00;;;2.00;;
73599;SDS011;61877;48.246;9.220;2022-09-09T04:43:36;6.50;;;2.00;;
73599;SDS011;61877;48.246;9.220;2022-09-09T04:46:02;8.35;;;2.47;;
73599;SDS011;61877;48.246;9.220;2022-09-09T04:48:27;6.15;;;2.00;;
73599;SDS011;61877;48.246;9.220;2022-09-09T04:50:53;5.63;;;2.03;;
73599;SDS011;61877;48.246;9.220;2022-09-09T04:53:23;7.20;;;2.17;;
73599;SDS011;61877;48.246;9.220;2022-09-09T04:55:49;7.60;;;2.13;;
73599;SDS011;61877;48.246;9.220;2022-09-09T04:58:14;7.47;;;2.20;;
73599;SDS011;61877;48.246;9.220;2022-09-09T05:00:41;6.53;;;2.13;;
73599;SDS011;61877;48.246;9.220;2022-09-09T05:03:07;6.97;;;2.00;;
73599;SDS011;61877;48.246;9.220;2022-09-09T05:05:33;6.97;;;2.55;;
73599;SDS011;61877;48.246;9.220;2022-09-09T05:08:00;5.82;;;2.15;;
73599;SDS011;61877;48.246;9.220;2022-09-09T05:10:26;6.60;;;2.10;;
73599;SDS011;61877;48.246;9.220;2022-09-09T05:12:52;6.70;;;2.20;;
73599;SDS011;61877;48.246;9.220;2022-09-09T05:15:17;6.63;;;2.17;;
73599;SDS011;61877;48.246;9.220;2022-09-09T05:17:44;10.85;;;2.40;;
73599;SDS011;61877;48.246;9.220;2022-09-09T05:20:10;6.07;;;2.05;;
73599;SDS011;61877;48.246;9.220;2022-09-09T05:22:35;5.83;;;1.90;;
73599;SDS011;61877;48.246;9.220;2022-09-09T05:25:01;8.63;;;2.17;;
73599;SDS011;61877;48.246;9.220;2022-09-09T05:27:29;5.93;;;2.13;;
73599;SDS011;61877;48.246;9.220;2022-09-09T05:29:55;6.88;;;2.20;;
73599;SDS011;61877;48.246;9.220;2022-09-09T05:32:20;6.23;;;2.00;;
73599;SDS011;61877;48.246;9.220;2022-09-09T05:34:47;8.88;;;2.35;;
73599;SDS011;61877;48.246;9.220;2022-09-09T05:37:12;5.67;;;1.97;;
73599;SDS011;61877;48.246;9.220;2022-09-09T05:39:38;6.95;;;2.00;;
73599;SDS011;61877;48.246;9.220;2022-09-09T05:42:03;6.00;;;2.20;;
73599;SDS011;61877;48.246;9.220;2022-09-09T05:44:30;7.00;;;2.05;;
73599;SDS011;61877;48.246;9.220;2022-09-09T05:46:55;7.57;;;1.97;;
73599;SDS011;61877;48.246;9.220;2022-09-09T05:49:21;6.63;;;2.30;;
73599;SDS011;61877;48.246;9.220;2022-09-09T05:51:48;7.13;;;2.10;;
73599;SDS011;61877;48.246;9.220;2022-09-09T05:54:13;6.93;;;2.28;;
73599;SDS011;61877;48.246;9.220;2022-09-09T05:56:39;7.37;;;2.20;;
73599;SDS011;61877;48.246;9.220;2022-09-09T05:59:04;7.07;;;2.27;;
73599;SDS011;61877;48.246;9.220;2022-09-09T06:01:31;6.00;;;2.30;;
73599;SDS011;61877;48.246;9.220;2022-09-09T06:03:58;7.40;;;2.42;;
73599;SDS011;61877;48.246;9.220;2022-09-09T06:06:25;6.23;;;2.30;;
73599;SDS011;61877;48.246;9.220;2022-09-09T06:08:53;6.60;;;2.20;;
73599;SDS011;61877;48.246;9.220;2022-09-09T06:11:21;7.07;;;2.10;;
73599;SDS011;61877;48.246;9.220;2022-09-09T06:13:47;7.32;;;1.92;;
73599;SDS011;61877;48.246;9.220;2022-09-09T06:16:14;6.43;;;1.92;;
73599;SDS011;61877;48.246;9.220;2022-09-09T06:18:40;7.33;;;1.87;;
73599;SDS011;61877;48.246;9.220;2022-09-09T06:21:08;7.07;;;2.20;;
73599;SDS011;61877;48.246;9.220;2022-09-09T06:23:40;6.32;;;2.40;;
73599;SDS011;61877;48.246;9.220;2022-09-09T06:26:07;5.73;;;2.57;;
73599;SDS011;61877;48.246;9.220;2022-09-09T06:28:35;6.68;;;2.20;;
73599;SDS011;61877;48.246;9.220;2022-09-09T06:31:02;10.30;;;4.10;;
73599;SDS011;61877;48.246;9.220;2022-09-09T06:33:30;8.95;;;3.13;;
73599;SDS011;61877;48.246;9.220;2022-09-09T06:35:56;7.13;;;2.40;;
73599;SDS011;61877;48.246;9.220;2022-09-09T06:38:22;5.90;;;2.17;;
73599;SDS011;61877;48.246;9.220;2022-09-09T06:40:50;7.20;;;2.50;;
73599;SDS011;61877;48.246;9.220;2022-09-09T06:43:18;6.15;;;2.10;;
73599;SDS011;61877;48.246;9.220;2022-09-09T06:45:44;6.53;;;2.40;;
73599;SDS011;61877;48.246;9.220;2022-09-09T06:48:18;6.93;;;2.28;;
73599;SDS011;61877;48.246;9.220;2022-09-09T06:50:43;6.53;;;2.10;;
73599;SDS011;61877;48.246;9.220;2022-09-09T06:53:08;9.17;;;2.20;;
73599;SDS011;61877;48.246;9.220;2022-09-09T06:55:39;6.80;;;2.03;;
73599;SDS011;61877;48.246;9.220;2022-09-09T06:58:07;5.90;;;2.17;;
73599;SDS011;61877;48.246;9.220;2022-09-09T07:00:34;6.13;;;1.92;;
73599;SDS011;61877;48.246;9.220;2022-09-09T07:03:00;7.00;;;1.90;;
73599;SDS011;61877;48.246;9.220;2022-09-09T07:05:25;8.15;;;2.20;;
73599;SDS011;61877;48.246;9.220;2022-09-09T07:07:51;6.03;;;2.00;;
73599;SDS011;61877;48.246;9.220;2022-09-09T07:10:16;6.37;;;2.03;;
73599;SDS011;61877;48.246;9.220;2022-09-09T07:12:42;6.07;;;1.90;;
73599;SDS011;61877;48.246;9.220;2022-09-09T07:15:07;7.03;;;2.10;;
73599;SDS011;61877;48.246;9.220;2022-09-09T07:17:35;6.75;;;2.10;;
73599;SDS011;61877;48.246;9.220;2022-09-09T07:20:01;5.70;;;2.00;;
73599;SDS011;61877;48.246;9.220;2022-09-09T07:22:27;7.67;;;2.30;;
73599;SDS011;61877;48.246;9.220;2022-09-09T07:24:53;6.63;;;2.20;;
73599;SDS011;61877;48.246;9.220;2022-09-09T07:27:18;6.37;;;2.30;;
73599;SDS011;61877;48.246;9.220;2022-09-09T07:29:43;7.75;;;2.40;;
73599;SDS011;61877;48.246;9.220;2022-09-09T07:32:09;7.93;;;2.30;;
73599;SDS011;61877;48.246;9.220;2022-09-09T07:34:36;6.53;;;2.27;;
73599;SDS011;61877;48.246;9.220;2022-09-09T07:37:02;6.85;;;2.40;;
73599;SDS011;61877;48.246;9.220;2022-09-09T07:39:27;7.13;;;2.15;;
73599;SDS011;61877;48.246;9.220;2022-09-09T07:41:53;7.03;;;2.60;;
73599;SDS011;61877;48.246;9.220;2022-09-09T07:44:19;8.60;;;2.30;;
73599;SDS011;61877;48.246;9.220;2022-09-09T07:46:46;5.93;;;2.13;;
73599;SDS011;61877;48.246;9.220;2022-09-09T07:49:11;6.78;;;2.17;;
73599;SDS011;61877;48.246;9.220;2022-09-09T07:51:39;7.10;;;2.33;;
73599;SDS011;61877;48.246;9.220;2022-09-09T07:54:06;7.00;;;2.45;;
73599;SDS011;61877;48.246;9.220;2022-09-09T07:56:33;7.63;;;2.22;;
73599;SDS011;61877;48.246;9.220;2022-09-09T07:58:59;7.07;;;2.17;;
73599;SDS011;61877;48.246;9.220;2022-09-09T08:01:25;6.65;;;2.08;;
73599;SDS011;61877;48.246;9.220;2022-09-09T08:03:53;7.57;;;2.17;;
73599;SDS011;61877;48.246;9.220;2022-09-09T08:06:20;7.37;;;2.30;;
73599;SDS011;61877;48.246;9.220;2022-09-09T08:08:49;6.15;;;2.13;;
73599;SDS011;61877;48.246;9.220;2022-09-09T08:11:15;5.77;;;2.20;;
73599;SDS011;61877;48.246;9.220;2022-09-09T08:13:41;5.82;;;2.10;;
73599;SDS011;61877;48.246;9.220;2022-09-09T08:16:09;5.97;;;1.85;;
73599;SDS011;61877;48.246;9.220;2022-09-09T08:18:37;5.80;;;2.00;;
73599;SDS011;61877;48.246;9.220;2022-09-09T08:21:07;6.00;;;2.00;;
73599;SDS011;61877;48.246;9.220;2022-09-09T08:23:34;7.10;;;2.30;;
73599;SDS011;61877;48.246;9.220;2022-09-09T08:26:04;6.25;;;1.90;;
73599;SDS011;61877;48.246;9.220;2022-09-09T08:28:30;5.65;;;1.70;;
73599;SDS011;61877;48.246;9.220;2022-09-09T08:30:56;5.70;;;1.70;;
73599;SDS011;61877;48.246;9.220;2022-09-09T08:33:32;6.80;;;1.98;;
73599;SDS011;61877;48.246;9.220;2022-09-09T08:35:57;6.30;;;1.90;;
73599;SDS011;61877;48.246;9.220;2022-09-09T08:38:23;5.63;;;1.70;;
73599;SDS011;61877;48.246;9.220;2022-09-09T08:40:48;5.50;;;2.00;;
73599;SDS011;61877;48.246;9.220;2022-09-09T08:43:19;5.75;;;2.10;;
73599;SDS011;61877;48.246;9.220;2022-09-09T08:45:49;6.03;;;2.08;;
73599;SDS011;61877;48.246;9.220;2022-09-09T08:48:25;5.93;;;1.85;;
73599;SDS011;61877;48.246;9.220;2022-09-09T08:51:03;5.85;;;2.00;;
73599;SDS011;61877;48.246;9.220;2022-09-09T08:53:33;6.87;;;2.33;;
73599;SDS011;61877;48.246;9.220;2022-09-09T08:56:08;6.85;;;2.05;;
73599;SDS011;61877;48.246;9.220;2022-09-09T08:58:41;6.07;;;1.88;;
73599;SDS011;61877;48.246;9.220;2022-09-09T09:01:15;6.95;;;2.08;;
73599;SDS011;61877;48.246;9.220;2022-09-09T09:03:57;6.28;;;2.00;;
73599;SDS011;61877;48.246;9.220;2022-09-09T09:06:39;5.80;;;1.70;;
73599;SDS011;61877;48.246;9.220;2022-09-09T09:09:17;5.88;;;1.90;;
73599;SDS011;61877;48.246;9.220;2022-09-09T09:11:50;6.60;;;1.90;;
73599;SDS011;61877;48.246;9.220;2022-09-09T09:14:20;6.13;;;2.00;;
73599;SDS011;61877;48.246;9.220;2022-09-09T09:16:48;7.90;;;1.88;;
73599;SDS011;61877;48.246;9.220;2022-09-09T09:19:17;6.97;;;1.80;;
73599;SDS011;61877;48.246;9.220;2022-09-09T09:21:43;6.30;;;1.90;;
73599;SDS011;61877;48.246;9.220;2022-09-09T09:24:13;6.30;;;2.03;;
73599;SDS011;61877;48.246;9.220;2022-09-09T09:26:43;5.73;;;1.67;;
73599;SDS011;61877;48.246;9.220;2022-09-09T09:29:09;7.53;;;1.80;;
73599;SDS011;61877;48.246;9.220;2022-09-09T09:31:38;5.25;;;1.50;;
73599;SDS011;61877;48.246;9.220;2022-09-09T09:34:04;6.00;;;1.80;;
73599;SDS011;61877;48.246;9.220;2022-09-09T09:36:33;6.40;;;1.63;;
73599;SDS011;61877;48.246;9.220;2022-09-09T09:39:00;5.93;;;1.67;;
73599;SDS011;61877;48.246;9.220;2022-09-09T09:41:31;6.15;;;2.03;;
73599;SDS011;61877;48.246;9.220;2022-09-09T09:43:59;6.03;;;1.80;;
73599;SDS011;61877;48.246;9.220;2022-09-09T09:46:24;5.73;;;1.70;;
73599;SDS011;61877;48.246;9.220;2022-09-09T09:48:57;5.65;;;1.67;;
73599;SDS011;61877;48.246;9.220;2022-09-09T09:51:24;6.35;;;1.55;;
73599;SDS011;61877;48.246;9.220;2022-09-09T09:53:51;7.30;;;1.50;;
73599;SDS011;61877;48.246;9.220;2022-09-09T09:56:28;6.13;;;1.50;;
73599;SDS011;61877;48.246;9.220;2022-09-09T09:58:53;5.57;;;1.45;;
73599;SDS011;61877;48.246;9.220;2022-09-09T10:01:20;7.47;;;1.33;;
73599;SDS011;61877;48.246;9.220;2022-09-09T10:03:50;6.68;;;1.40;;
73599;SDS011;61877;48.246;9.220;2022-09-09T10:06:17;5.57;;;1.30;;
73599;SDS011;61877;48.246;9.220;2022-09-09T10:08:55;5.07;;;1.30;;
73599;SDS011;61877;48.246;9.220;2022-09-09T10:11:24;5.43;;;1.30;;
73599;SDS011;61877;48.246;9.220;2022-09-09T10:13:58;5.68;;;1.48;;
73599;SDS011;61877;48.246;9.220;2022-09-09T10:16:37;7.07;;;1.50;;
73599;SDS011;61877;48.246;9.220;2022-09-09T10:19:15;6.20;;;1.47;;
73599;SDS011;61877;48.246;9.220;2022-09-09T10:21:54;5.50;;;1.20;;
73599;SDS011;61877;48.246;9.220;2022-09-09T10:24:41;7.32;;;1.52;;
73599;SDS011;61877;48.246;9.220;2022-09-09T10:27:27;5.78;;;1.30;;
73599;SDS011;61877;48.246;9.220;2022-09-09T10:30:05;5.13;;;1.35;;
73599;SDS011;61877;48.246;9.220;2022-09-09T10:32:38;5.27;;;1.40;;
73599;SDS011;61877;48.246;9.220;2022-09-09T10:35:09;5.72;;;1.50;;
73599;SDS011;61877;48.246;9.220;2022-09-09T10:37:43;4.78;;;1.15;;
73599;SDS011;61877;48.246;9.220;2022-09-09T10:40:21;5.60;;;1.40;;
73599;SDS011;61877;48.246;9.220;2022-09-09T10:42:53;5.57;;;1.45;;
73599;SDS011;61877;48.246;9.220;2022-09-09T10:45:27;5.37;;;1.30;;
73599;SDS011;61877;48.246;9.220;2022-09-09T10:48:12;4.82;;;1.10;;
73599;SDS011;61877;48.246;9.220;2022-09-09T10:50:56;5.70;;;1.33;;
73599;SDS011;61877;48.246;9.220;2022-09-09T10:53:35;5.15;;;1.20;;
73599;SDS011;61877;48.246;9.220;2022-09-09T10:56:09;6.30;;;1.30;;
73599;SDS011;61877;48.246;9.220;2022-09-09T10:58:39;6.23;;;1.50;;
73599;SDS011;61877;48.246;9.220;2022-09-09T11:01:10;5.40;;;1.30;;
73599;SDS011;61877;48.246;9.220;2022-09-09T11:03:40;5.60;;;1.10;;
73599;SDS011;61877;48.246;9.220;2022-09-09T11:06:09;6.20;;;1.30;;
73599;SDS011;61877;48.246;9.220;2022-09-09T11:08:43;6.00;;;1.20;;
73599;SDS011;61877;48.246;9.220;2022-09-09T11:11:10;5.23;;;1.30;;
73599;SDS011;61877;48.246;9.220;2022-09-09T11:13:42;5.25;;;1.40;;
73599;SDS011;61877;48.246;9.220;2022-09-09T11:16:15;5.60;;;1.38;;
73599;SDS011;61877;48.246;9.220;2022-09-09T11:18:47;5.50;;;1.30;;
73599;SDS011;61877;48.246;9.220;2022-09-09T11:21:14;6.03;;;1.67;;
73599;SDS011;61877;48.246;9.220;2022-09-09T11:23:46;4.78;;;1.20;;
73599;SDS011;61877;48.246;9.220;2022-09-09T11:26:17;6.53;;;1.30;;
73599;SDS011;61877;48.246;9.220;2022-09-09T11:28:54;5.63;;;1.30;;
73599;SDS011;61877;48.246;9.220;2022-09-09T11:31:42;5.63;;;1.20;;
73599;SDS011;61877;48.246;9.220;2022-09-09T11:34:19;5.07;;;1.20;;
73599;SDS011;61877;48.246;9.220;2022-09-09T11:37:04;4.80;;;1.30;;
73599;SDS011;61877;48.246;9.220;2022-09-09T11:42:42;5.60;;;1.33;;
73599;SDS011;61877;48.246;9.220;2022-09-09T11:45:08;5.03;;;1.40;;
73599;SDS011;61877;48.246;9.220;2022-09-09T11:47:36;5.88;;;1.50;;
73599;SDS011;61877;48.246;9.220;2022-09-09T11:50:09;6.50;;;1.20;;
73599;SDS011;61877;48.246;9.220;2022-09-09T11:52:36;5.63;;;1.30;;
73599;SDS011;61877;48.246;9.220;2022-09-09T11:55:08;5.20;;;1.38;;
73599;SDS011;61877;48.246;9.220;2022-09-09T11:57:35;5.30;;;1.40;;
73599;SDS011;61877;48.246;9.220;2022-09-09T12:00:03;6.93;;;1.50;;
73599;SDS011;61877;48.246;9.220;2022-09-09T12:02:30;5.63;;;1.23;;
73599;SDS011;61877;48.246;9.220;2022-09-09T12:04:56;7.53;;;1.50;;
73599;SDS011;61877;48.246;9.220;2022-09-09T12:07:32;5.13;;;1.40;;
73599;SDS011;61877;48.246;9.220;2022-09-09T12:10:02;5.63;;;1.38;;
73599;SDS011;61877;48.246;9.220;2022-09-09T12:12:31;6.03;;;1.35;;
73599;SDS011;61877;48.246;9.220;2022-09-09T12:14:59;6.45;;;1.30;;
73599;SDS011;61877;48.246;9.220;2022-09-09T12:17:30;6.03;;;1.40;;
73599;SDS011;61877;48.246;9.220;2022-09-09T12:20:00;5.40;;;1.30;;
73599;SDS011;61877;48.246;9.220;2022-09-09T12:22:35;5.10;;;1.40;;
73599;SDS011;61877;48.246;9.220;2022-09-09T12:25:13;5.10;;;1.30;;
73599;SDS011;61877;48.246;9.220;2022-09-09T12:27:50;5.60;;;1.35;;
73599;SDS011;61877;48.246;9.220;2022-09-09T12:30:28;5.60;;;1.50;;
73599;SDS011;61877;48.246;9.220;2022-09-09T12:33:01;5.23;;;1.10;;
73599;SDS011;61877;48.246;9.220;2022-09-09T12:35:32;5.00;;;1.13;;
73599;SDS011;61877;48.246;9.220;2022-09-09T12:37:58;5.10;;;1.40;;
73599;SDS011;61877;48.246;9.220;2022-09-09T12:40:26;6.10;;;1.30;;
73599;SDS011;61877;48.246;9.220;2022-09-09T12:42:53;5.18;;;1.15;;
73599;SDS011;61877;48.246;9.220;2022-09-09T12:45:19;4.95;;;1.40;;
73599;SDS011;61877;48.246;9.220;2022-09-09T12:47:46;6.65;;;1.48;;
73599;SDS011;61877;48.246;9.220;2022-09-09T12:50:17;5.23;;;1.20;;
73599;SDS011;61877;48.246;9.220;2022-09-09T12:52:45;4.90;;;1.10;;
73599;SDS011;61877;48.246;9.220;2022-09-09T12:55:16;4.80;;;1.10;;
73599;SDS011;61877;48.246;9.220;2022-09-09T12:57:43;5.40;;;1.23;;
73599;SDS011;61877;48.246;9.220;2022-09-09T13:00:12;5.33;;;1.20;;
73599;SDS011;61877;48.246;9.220;2022-09-09T13:02:47;4.93;;;1.13;;
73599;SDS011;61877;48.246;9.220;2022-09-09T13:05:18;5.70;;;1.30;;
73599;SDS011;61877;48.246;9.220;2022-09-09T13:07:45;5.40;;;1.45;;
73599;SDS011;61877;48.246;9.220;2022-09-09T13:10:12;6.03;;;1.30;;
73599;SDS011;61877;48.246;9.220;2022-09-09T13:12:38;6.47;;;1.50;;
73599;SDS011;61877;48.246;9.220;2022-09-09T13:15:05;5.55;;;1.40;;
73599;SDS011;61877;48.246;9.220;2022-09-09T13:17:42;4.80;;;1.20;;
73599;SDS011;61877;48.246;9.220;2022-09-09T13:20:24;7.53;;;1.23;;
73599;SDS011;61877;48.246;9.220;2022-09-09T13:22:51;6.32;;;1.40;;
73599;SDS011;61877;48.246;9.220;2022-09-09T13:25:19;6.38;;;1.45;;
73599;SDS011;61877;48.246;9.220;2022-09-09T13:27:54;5.35;;;1.20;;
73599;SDS011;61877;48.246;9.220;2022-09-09T13:30:22;6.75;;;1.50;;
73599;SDS011;61877;48.246;9.220;2022-09-09T13:33:00;5.40;;;1.40;;
73599;SDS011;61877;48.246;9.220;2022-09-09T13:35:28;6.88;;;1.30;;
73599;SDS011;61877;48.246;9.220;2022-09-09T13:37:53;5.70;;;1.40;;
73599;SDS011;61877;48.246;9.220;2022-09-09T13:40:19;4.93;;;1.30;;
73599;SDS011;61877;48.246;9.220;2022-09-09T13:42:46;5.93;;;1.30;;
73599;SDS011;61877;48.246;9.220;2022-09-09T13:45:16;5.45;;;1.27;;
73599;SDS011;61877;48.246;9.220;2022-09-09T13:47:44;6.18;;;1.60;;
73599;SDS011;61877;48.246;9.220;2022-09-09T13:50:10;4.63;;;1.03;;
73599;SDS011;61877;48.246;9.220;2022-09-09T13:52:45;5.32;;;1.10;;
73599;SDS011;61877;48.246;9.220;2022-09-09T13:55:10;5.00;;;1.00;;
73599;SDS011;61877;48.246;9.220;2022-09-09T13:57:35;5.63;;;1.30;;
73599;SDS011;61877;48.246;9.220;2022-09-09T14:00:01;5.53;;;1.00;;
73599;SDS011;61877;48.246;9.220;2022-09-09T14:02:27;6.32;;;1.17;;
73599;SDS011;61877;48.246;9.220;2022-09-09T14:04:52;4.67;;;1.10;;
73599;SDS011;61877;48.246;9.220;2022-09-09T14:07:18;5.53;;;1.20;;
73599;SDS011;61877;48.246;9.220;2022-09-09T14:09:45;5.03;;;1.10;;
73599;SDS011;61877;48.246;9.220;2022-09-09T14:12:11;4.65;;;1.10;;
73599;SDS011;61877;48.246;9.220;2022-09-09T14:14:36;5.17;;;1.20;;
73599;SDS011;61877;48.246;9.220;2022-09-09T14:17:02;5.13;;;1.10;;
73599;SDS011;61877;48.246;9.220;2022-09-09T14:19:28;5.10;;;1.10;;
73599;SDS011;61877;48.246;9.220;2022-09-09T14:21:54;6.03;;;1.00;;
73599;SDS011;61877;48.246;9.220;2022-09-09T14:24:19;5.83;;;1.10;;
73599;SDS011;61877;48.246;9.220;2022-09-09T14:26:46;6.03;;;1.40;;
73599;SDS011;61877;48.246;9.220;2022-09-09T14:29:11;5.25;;;1.38;;
73599;SDS011;61877;48.246;9.220;2022-09-09T14:31:37;5.17;;;1.10;;
73599;SDS011;61877;48.246;9.220;2022-09-09T14:34:03;4.70;;;1.20;;
73599;SDS011;61877;48.246;9.220;2022-09-09T14:36:28;5.53;;;1.30;;
73599;SDS011;61877;48.246;9.220;2022-09-09T14:38:54;6.38;;;1.20;;
73599;SDS011;61877;48.246;9.220;2022-09-09T14:41:19;4.47;;;0.93;;
73599;SDS011;61877;48.246;9.220;2022-09-09T14:43:46;5.80;;;1.40;;
73599;SDS011;61877;48.246;9.220;2022-09-09T14:46:12;5.55;;;1.35;;
73599;SDS011;61877;48.246;9.220;2022-09-09T14:48:39;5.78;;;1.10;;
73599;SDS011;61877;48.246;9.220;2022-09-09T14:51:05;6.30;;;1.23;;
73599;SDS011;61877;48.246;9.220;2022-09-09T14:53:31;5.47;;;1.10;;
73599;SDS011;61877;48.246;9.220;2022-09-09T14:56:02;5.93;;;1.30;;
73599;SDS011;61877;48.246;9.220;2022-09-09T14:58:30;5.00;;;1.10;;
73599;SDS011;61877;48.246;9.220;2022-09-09T15:01:03;5.63;;;1.20;;
73599;SDS011;61877;48.246;9.220;2022-09-09T15:03:30;5.10;;;1.10;;